createdAt,value
2023-01-07T00:01:54.628Z,14.94
2023-01-07T00:04:21.801Z,14.92
2023-01-07T00:06:50.105Z,14.86
2023-01-07T00:09:17.285Z,14.84
2023-01-07T00:11:45.849Z,14.83
2023-01-07T00:14:14.387Z,14.81
2023-01-07T00:16:41.868Z,14.79
2023-01-07T00:19:13.444Z,14.79
2023-01-07T00:21:40.633Z,14.76
2023-01-07T00:24:09.830Z,14.73
2023-01-07T00:26:38.426Z,14.72
2023-01-07T00:29:06.911Z,14.71
2023-01-07T00:31:37.004Z,14.70
2023-01-07T00:34:04.362Z,14.68
2023-01-07T00:36:46.344Z,14.67
2023-01-07T00:39:16.632Z,14.61
2023-01-07T00:42:02.873Z,14.64
2023-01-07T00:44:30.640Z,14.63
2023-01-07T00:46:58.756Z,14.62
2023-01-07T00:49:26.078Z,14.58
2023-01-07T00:51:53.635Z,14.58
2023-01-07T00:54:20.696Z,14.57
2023-01-07T00:56:47.686Z,14.53
2023-01-07T00:59:14.566Z,14.55
2023-01-07T01:01:41.696Z,14.55
2023-01-07T01:04:08.800Z,14.53
2023-01-07T01:06:35.917Z,14.51
2023-01-07T01:09:03.294Z,14.50
2023-01-07T01:11:30.199Z,14.47
2023-01-07T01:13:57.037Z,14.47
2023-01-07T01:16:24.050Z,14.47
2023-01-07T01:18:50.987Z,14.46
2023-01-07T01:21:19.130Z,14.44
2023-01-07T01:23:46.123Z,14.45
2023-01-07T01:26:16.016Z,14.43
2023-01-07T01:28:43.819Z,14.44
2023-01-07T01:31:11.460Z,14.43
2023-01-07T01:33:38.538Z,14.40
2023-01-07T01:36:08.237Z,14.42
2023-01-07T01:38:35.175Z,14.40
2023-01-07T01:41:02.350Z,14.40
2023-01-07T01:43:35.331Z,14.40
2023-01-07T01:46:12.973Z,14.40
2023-01-07T01:48:46.640Z,14.38
2023-01-07T01:51:15.909Z,14.39
2023-01-07T01:53:42.981Z,14.38
2023-01-07T01:56:14.075Z,14.37
2023-01-07T01:58:50.191Z,14.37
2023-01-07T02:01:17.429Z,14.39
2023-01-07T02:03:45.126Z,14.39
2023-01-07T02:06:37.780Z,14.38
2023-01-07T02:09:05.139Z,14.38
2023-01-07T02:11:41.225Z,14.37
2023-01-07T02:14:38.109Z,14.37
2023-01-07T02:17:26.346Z,14.37
2023-01-07T02:20:11.306Z,14.38
2023-01-07T02:22:56.013Z,14.35
2023-01-07T02:26:00.176Z,14.38
2023-01-07T02:28:59.665Z,14.38
2023-01-07T02:31:26.506Z,14.38
2023-01-07T02:34:11.259Z,14.38
2023-01-07T02:36:45.141Z,14.39
2023-01-07T02:39:45.785Z,14.37
2023-01-07T02:42:15.320Z,14.37
2023-01-07T02:44:45.666Z,14.39
2023-01-07T02:47:26.415Z,14.37
2023-01-07T02:49:53.281Z,14.40
2023-01-07T02:52:25.878Z,14.42
2023-01-07T02:55:07.345Z,14.41
2023-01-07T02:58:12.644Z,14.43
2023-01-07T03:01:09.628Z,14.43
2023-01-07T03:03:46.667Z,14.45
2023-01-07T03:06:25.659Z,14.44
2023-01-07T03:09:12.765Z,14.42
2023-01-07T03:11:51.045Z,14.45
2023-01-07T03:14:32.886Z,14.46
2023-01-07T03:17:05.307Z,14.46
2023-01-07T03:19:35.969Z,14.48
2023-01-07T03:22:06.631Z,14.47
2023-01-07T03:24:33.914Z,14.48
2023-01-07T03:27:03.446Z,14.48
2023-01-07T03:29:32.544Z,14.50
2023-01-07T03:32:45.573Z,14.50
2023-01-07T03:35:12.767Z,14.50
2023-01-07T03:37:42.794Z,14.50
2023-01-07T03:40:12.065Z,14.50
2023-01-07T03:42:42.124Z,14.50
2023-01-07T03:45:15.112Z,14.51
2023-01-07T03:47:45.926Z,14.53
2023-01-07T03:50:12.795Z,14.53
2023-01-07T03:52:39.684Z,14.56
2023-01-07T03:55:07.322Z,14.56
2023-01-07T03:57:34.625Z,14.54
2023-01-07T04:00:01.657Z,14.56
2023-01-07T04:02:28.489Z,14.61
2023-01-07T04:04:55.384Z,14.60
2023-01-07T04:07:22.287Z,14.60
2023-01-07T04:09:50.630Z,14.61
2023-01-07T04:12:18.457Z,14.63
2023-01-07T04:14:45.627Z,14.60
2023-01-07T04:17:12.663Z,14.63
2023-01-07T04:19:39.997Z,14.62
2023-01-07T04:22:09.716Z,14.62
2023-01-07T04:24:36.546Z,14.65
2023-01-07T04:27:03.812Z,14.65
2023-01-07T04:29:30.800Z,14.66
2023-01-07T04:31:58.183Z,14.66
2023-01-07T04:34:25.841Z,14.67
2023-01-07T04:36:52.819Z,14.68
2023-01-07T04:39:19.890Z,14.67
2023-01-07T04:41:47.439Z,14.71
2023-01-07T04:44:15.750Z,14.67
2023-01-07T04:46:42.562Z,14.70
2023-01-07T04:49:09.871Z,14.70
2023-01-07T04:51:36.737Z,14.73
2023-01-07T04:54:03.619Z,14.73
2023-01-07T04:56:30.430Z,14.73
2023-01-07T04:58:57.331Z,14.74
2023-01-07T05:01:25.680Z,14.75
2023-01-07T05:03:52.642Z,14.74
2023-01-07T05:06:19.691Z,14.73
2023-01-07T05:08:46.512Z,14.76
2023-01-07T05:11:14.231Z,14.76
2023-01-07T05:13:41.043Z,14.76
2023-01-07T05:16:07.962Z,14.78
2023-01-07T05:18:34.783Z,14.75
2023-01-07T05:21:01.608Z,14.78
2023-01-07T05:23:28.443Z,14.79
2023-01-07T05:25:55.501Z,14.81
2023-01-07T05:28:22.351Z,14.80
2023-01-07T05:30:49.235Z,14.81
2023-01-07T05:33:16.107Z,14.78
2023-01-07T05:35:42.955Z,14.80
2023-01-07T05:38:09.877Z,14.82
2023-01-07T05:40:36.711Z,14.81
2023-01-07T05:43:03.639Z,14.80
2023-01-07T05:45:30.527Z,14.80
2023-01-07T05:47:57.496Z,14.80
2023-01-07T05:50:24.369Z,14.83
2023-01-07T05:52:52.182Z,14.83
2023-01-07T05:55:19.427Z,14.84
2023-01-07T05:57:46.277Z,14.83
2023-01-07T06:00:13.844Z,14.79
2023-01-07T06:02:40.680Z,14.82
2023-01-07T06:05:09.043Z,14.85
2023-01-07T06:07:36.402Z,14.86
2023-01-07T06:10:03.665Z,14.85
2023-01-07T06:12:31.054Z,14.84
2023-01-07T06:14:57.900Z,14.86
2023-01-07T06:17:24.730Z,14.86
2023-01-07T06:19:51.539Z,14.86
2023-01-07T06:22:18.424Z,14.88
2023-01-07T06:24:45.285Z,14.89
2023-01-07T06:27:13.037Z,14.88
2023-01-07T06:29:39.896Z,14.90
2023-01-07T06:32:07.040Z,14.89
2023-01-07T06:34:34.000Z,14.90
2023-01-07T06:37:01.009Z,14.91
2023-01-07T06:39:27.926Z,14.91
2023-01-07T06:41:54.806Z,14.92
2023-01-07T06:44:21.683Z,14.92
2023-01-07T06:46:48.506Z,14.93
2023-01-07T06:49:15.563Z,14.94
2023-01-07T06:51:42.354Z,14.94
2023-01-07T06:54:09.253Z,14.96
2023-01-07T06:56:36.065Z,15.00
2023-01-07T06:59:02.893Z,15.02
2023-01-07T07:01:29.797Z,15.10
2023-01-07T07:03:56.702Z,15.16
2023-01-07T07:06:23.565Z,15.19
2023-01-07T07:08:50.551Z,15.23
2023-01-07T07:11:17.418Z,15.27
2023-01-07T07:13:44.372Z,15.22
2023-01-07T07:16:11.453Z,15.26
2023-01-07T07:18:38.392Z,15.31
2023-01-07T07:21:05.413Z,15.31
2023-01-07T07:23:32.259Z,15.27
2023-01-07T07:25:59.155Z,15.27
2023-01-07T07:28:26.021Z,15.31
2023-01-07T07:30:52.921Z,15.37
2023-01-07T07:33:19.910Z,15.45
2023-01-07T07:35:47.197Z,15.51
2023-01-07T07:38:14.668Z,15.58
2023-01-07T07:40:41.499Z,15.61
2023-01-07T07:43:11.628Z,15.62
2023-01-07T07:45:39.937Z,15.64
2023-01-07T07:48:08.044Z,15.65
2023-01-07T07:50:36.201Z,15.69
2023-01-07T07:53:03.268Z,15.72
2023-01-07T07:55:30.123Z,15.76
2023-01-07T07:57:58.562Z,15.79
2023-01-07T08:00:25.752Z,15.84
2023-01-07T08:02:52.811Z,15.89
2023-01-07T08:05:19.857Z,15.93
2023-01-07T08:07:46.793Z,15.96
2023-01-07T08:10:13.639Z,15.98
2023-01-07T08:12:40.555Z,16.03
2023-01-07T08:15:08.514Z,16.06
2023-01-07T08:17:36.619Z,16.07
2023-01-07T08:20:05.166Z,16.05
2023-01-07T08:22:33.493Z,16.09
2023-01-07T08:25:00.769Z,16.10
2023-01-07T08:27:28.273Z,16.13
2023-01-07T08:29:56.141Z,16.14
2023-01-07T08:32:23.423Z,16.17
2023-01-07T08:34:50.451Z,16.19
2023-01-07T08:37:17.451Z,16.22
2023-01-07T08:39:44.284Z,16.20
2023-01-07T08:42:11.170Z,16.25
2023-01-07T08:44:38.242Z,16.28
2023-01-07T08:47:05.146Z,16.30
2023-01-07T08:49:32.104Z,16.32
2023-01-07T08:51:59.009Z,16.34
2023-01-07T08:54:25.881Z,16.37
2023-01-07T08:56:52.881Z,16.38
2023-01-07T08:59:19.758Z,16.41
2023-01-07T09:01:46.867Z,16.43
2023-01-07T09:04:13.928Z,16.46
2023-01-07T09:06:40.981Z,16.48
2023-01-07T09:09:07.912Z,16.49
2023-01-07T09:11:35.201Z,16.51
2023-01-07T09:14:02.160Z,16.55
2023-01-07T09:16:29.142Z,16.57
2023-01-07T09:18:56.091Z,16.60
2023-01-07T09:21:23.021Z,16.61
2023-01-07T09:23:49.888Z,16.52
2023-01-07T09:26:17.819Z,16.49
2023-01-07T09:28:44.699Z,16.44
2023-01-07T09:31:11.700Z,16.41
2023-01-07T09:33:40.438Z,16.47
2023-01-07T09:36:07.571Z,16.53
2023-01-07T09:38:34.601Z,16.55
2023-01-07T09:41:01.607Z,16.57
2023-01-07T09:44:00.306Z,16.58
2023-01-07T09:46:29.562Z,16.58
2023-01-07T09:49:01.985Z,16.59
2023-01-07T09:51:39.514Z,16.59
2023-01-07T09:54:21.982Z,16.55
2023-01-07T09:56:48.940Z,16.53
2023-01-07T09:59:16.809Z,16.50
2023-01-07T10:01:56.091Z,16.48
2023-01-07T10:04:42.427Z,16.46
2023-01-07T10:07:21.397Z,16.45
2023-01-07T10:09:59.333Z,16.43
2023-01-07T10:12:59.599Z,16.38
2023-01-07T10:15:35.970Z,16.37
2023-01-07T10:18:54.884Z,16.35
2023-01-07T10:21:24.140Z,16.34
2023-01-07T10:24:03.474Z,16.32
2023-01-07T10:26:36.099Z,16.31
2023-01-07T10:29:16.548Z,16.28
2023-01-07T10:31:46.089Z,16.28
2023-01-07T10:34:23.361Z,16.23
2023-01-07T10:37:03.699Z,16.24
2023-01-07T10:39:45.748Z,16.20
2023-01-07T10:42:46.577Z,16.19
2023-01-07T10:45:41.299Z,16.19
2023-01-07T10:48:23.207Z,16.17
2023-01-07T10:51:21.021Z,16.16
2023-01-07T10:54:03.859Z,16.15
2023-01-07T10:56:36.707Z,16.13
2023-01-07T10:59:04.462Z,16.11
2023-01-07T11:01:34.093Z,16.11
2023-01-07T11:04:02.000Z,16.10
2023-01-07T11:06:48.579Z,16.09
2023-01-07T11:09:23.307Z,16.08
2023-01-07T11:11:51.653Z,16.06
2023-01-07T11:14:28.637Z,16.04
2023-01-07T11:17:07.884Z,16.03
2023-01-07T11:19:49.629Z,16.04
2023-01-07T11:22:39.304Z,16.01
2023-01-07T11:25:24.555Z,16.02
2023-01-07T11:27:51.541Z,16.04
2023-01-07T11:30:26.740Z,16.08
2023-01-07T11:34:02.651Z,16.10
2023-01-07T11:36:13.043Z,16.04
2023-01-07T11:38:40.393Z,15.92
2023-01-07T11:41:20.696Z,15.71
2023-01-07T11:43:54.180Z,15.61
2023-01-07T11:46:25.904Z,15.70
2023-01-07T11:49:01.723Z,15.78
2023-01-07T11:51:40.424Z,15.79
2023-01-07T11:54:29.507Z,15.81
2023-01-07T11:57:22.975Z,15.83
2023-01-07T12:00:15.986Z,15.89
2023-01-07T12:02:44.273Z,15.91
2023-01-07T12:05:26.702Z,15.90
2023-01-07T12:07:55.966Z,15.93
2023-01-07T12:10:30.263Z,15.94
2023-01-07T12:12:59.811Z,15.94
2023-01-07T12:15:35.409Z,15.95
2023-01-07T12:18:08.217Z,15.98
2023-01-07T12:21:02.705Z,16.01
2023-01-07T12:23:53.817Z,16.05
2023-01-07T12:26:29.600Z,16.06
2023-01-07T12:29:02.781Z,16.07
2023-01-07T12:31:32.304Z,16.07
2023-01-07T12:34:17.409Z,16.06
2023-01-07T12:36:47.298Z,16.06
2023-01-07T12:39:24.864Z,16.07
2023-01-07T12:42:18.127Z,16.10
2023-01-07T12:44:53.409Z,16.11
2023-01-07T12:47:44.537Z,16.10
2023-01-07T12:50:18.531Z,16.11
2023-01-07T12:53:08.797Z,16.14
2023-01-07T12:55:41.139Z,16.15
2023-01-07T12:58:26.600Z,16.14
2023-01-07T13:01:27.217Z,16.17
2023-01-07T13:03:57.628Z,16.15
2023-01-07T13:06:43.034Z,16.17
2023-01-07T13:09:21.613Z,16.20
2023-01-07T13:12:41.700Z,16.22
2023-01-07T13:15:29.209Z,16.24
2023-01-07T13:17:57.296Z,16.28
2023-01-07T13:20:48.580Z,16.27
2023-01-07T13:23:27.755Z,16.27
2023-01-07T13:26:15.298Z,16.26
2023-01-07T13:28:48.199Z,16.28
2023-01-07T13:31:47.046Z,16.35
2023-01-07T13:34:31.966Z,16.37
2023-01-07T13:37:36.476Z,16.37
2023-01-07T13:40:39.147Z,16.42
2023-01-07T13:43:21.839Z,16.45
2023-01-07T13:46:05.084Z,16.47
2023-01-07T13:48:34.998Z,16.49
2023-01-07T13:51:05.120Z,16.51
2023-01-07T13:53:40.376Z,16.48
2023-01-07T13:56:19.453Z,16.47
2023-01-07T13:58:46.687Z,16.50
2023-01-07T14:01:16.056Z,16.50
2023-01-07T14:03:50.357Z,16.48
2023-01-07T14:06:20.327Z,16.48
2023-01-07T14:09:14.151Z,16.48
2023-01-07T14:11:59.702Z,16.49
2023-01-07T14:14:36.167Z,16.47
2023-01-07T14:17:18.079Z,16.47
2023-01-07T14:20:11.515Z,16.43
2023-01-07T14:23:01.272Z,16.43
2023-01-07T14:25:58.616Z,16.42
2023-01-07T14:28:40.661Z,16.37
2023-01-07T14:31:24.583Z,16.35
2023-01-07T14:33:58.569Z,16.32
2023-01-07T14:37:09.182Z,16.31
2023-01-07T14:39:38.780Z,16.31
2023-01-07T14:42:20.843Z,16.31
2023-01-07T14:44:51.711Z,16.31
2023-01-07T14:47:43.480Z,16.34
2023-01-07T14:50:53.262Z,16.32
2023-01-07T14:53:48.220Z,16.33
2023-01-07T14:56:18.108Z,16.31
2023-01-07T14:59:18.747Z,16.32
2023-01-07T15:02:03.568Z,16.29
2023-01-07T15:05:08.028Z,16.27
2023-01-07T15:07:38.660Z,16.31
2023-01-07T15:10:42.072Z,16.34
2023-01-07T15:13:35.354Z,16.33
2023-01-07T15:16:07.690Z,16.34
2023-01-07T15:18:48.398Z,16.34
2023-01-07T15:21:30.281Z,16.37
2023-01-07T15:24:15.575Z,16.36
2023-01-07T15:27:19.782Z,16.39
2023-01-07T15:30:24.495Z,16.44
2023-01-07T15:32:56.840Z,16.45
2023-01-07T15:35:28.880Z,16.46
2023-01-07T15:37:57.060Z,16.47
2023-01-07T15:40:26.239Z,16.48
2023-01-07T15:42:57.397Z,16.50
2023-01-07T15:45:25.544Z,16.50
2023-01-07T15:47:52.659Z,16.50
2023-01-07T15:50:29.487Z,16.52
2023-01-07T15:52:57.922Z,16.56
2023-01-07T15:55:33.927Z,16.53
2023-01-07T15:58:05.388Z,16.62
2023-01-07T16:00:35.247Z,16.59
2023-01-07T16:03:04.775Z,16.65
2023-01-07T16:05:32.489Z,16.72
2023-01-07T16:08:01.599Z,16.74
2023-01-07T16:10:35.121Z,16.79
2023-01-07T16:13:05.453Z,16.81
2023-01-07T16:15:38.814Z,16.83
2023-01-07T16:18:25.995Z,16.86
2023-01-07T16:20:57.834Z,16.69
2023-01-07T16:23:31.014Z,16.76
2023-01-07T16:26:06.895Z,16.88
2023-01-07T16:28:47.132Z,16.94
2023-01-07T16:31:16.542Z,17.01
2023-01-07T16:33:44.378Z,17.01
2023-01-07T16:36:17.868Z,17.00
2023-01-07T16:38:50.627Z,16.97
2023-01-07T16:41:22.911Z,16.96
2023-01-07T16:43:53.075Z,16.98
2023-01-07T16:46:31.461Z,16.94
2023-01-07T16:49:20.133Z,16.96
2023-01-07T16:51:53.120Z,16.92
2023-01-07T16:54:26.217Z,16.93
2023-01-07T16:56:58.974Z,16.92
2023-01-07T16:59:30.738Z,16.91
2023-01-07T17:02:00.391Z,16.90
2023-01-07T17:04:30.925Z,16.91
2023-01-07T17:07:01.401Z,16.95
2023-01-07T17:09:36.185Z,16.97
2023-01-07T17:12:03.197Z,17.00
2023-01-07T17:14:37.080Z,17.04
2023-01-07T17:17:21.060Z,17.06
2023-01-07T17:19:58.505Z,17.06
2023-01-07T17:22:38.899Z,17.09
2023-01-07T17:25:21.921Z,17.17
2023-01-07T17:27:53.688Z,17.22
2023-01-07T17:30:22.994Z,17.21
2023-01-07T17:32:51.179Z,17.22
2023-01-07T17:35:19.400Z,17.08
2023-01-07T17:37:46.575Z,16.90
2023-01-07T17:40:14.664Z,16.96
2023-01-07T17:43:00.948Z,17.10
2023-01-07T17:45:29.326Z,17.22
2023-01-07T17:47:57.245Z,17.29
2023-01-07T17:50:24.301Z,17.35
2023-01-07T17:52:55.111Z,17.41
2023-01-07T17:55:26.201Z,17.45
2023-01-07T17:57:53.132Z,17.47
2023-01-07T18:00:23.509Z,17.49
2023-01-07T18:02:51.700Z,17.48
2023-01-07T18:05:18.883Z,17.49
2023-01-07T18:07:48.251Z,17.51
2023-01-07T18:10:17.297Z,17.54
2023-01-07T18:12:45.109Z,17.54
2023-01-07T18:15:24.992Z,17.57
2023-01-07T18:17:52.810Z,17.56
2023-01-07T18:20:21.959Z,17.56
2023-01-07T18:22:50.188Z,17.55
2023-01-07T18:25:20.212Z,17.58
2023-01-07T18:27:48.754Z,17.62
2023-01-07T18:30:19.115Z,17.62
2023-01-07T18:32:46.661Z,17.61
2023-01-07T18:35:14.656Z,17.61
2023-01-07T18:37:43.467Z,17.60
2023-01-07T18:40:10.833Z,17.59
2023-01-07T18:42:38.088Z,17.58
2023-01-07T18:45:07.339Z,17.56
2023-01-07T18:47:34.647Z,17.56
2023-01-07T18:50:02.071Z,17.52
2023-01-07T18:52:32.138Z,17.50
2023-01-07T18:54:59.910Z,17.46
2023-01-07T18:57:27.226Z,17.39
2023-01-07T18:59:54.397Z,17.35
2023-01-07T19:02:22.573Z,17.33
2023-01-07T19:04:51.814Z,17.30
2023-01-07T19:07:22.402Z,17.36
2023-01-07T19:09:51.380Z,17.42
2023-01-07T19:12:19.384Z,17.46
2023-01-07T19:14:46.678Z,17.50
2023-01-07T19:17:13.803Z,17.51
2023-01-07T19:19:48.473Z,17.56
2023-01-07T19:22:16.934Z,17.39
2023-01-07T19:24:44.810Z,17.43
2023-01-07T19:27:12.481Z,17.45
2023-01-07T19:29:39.873Z,17.55
2023-01-07T19:32:07.132Z,17.66
2023-01-07T19:34:34.355Z,17.73
2023-01-07T19:37:01.529Z,17.80
2023-01-07T19:39:28.968Z,17.87
2023-01-07T19:41:56.105Z,17.93
2023-01-07T19:44:23.144Z,17.98
2023-01-07T19:46:50.233Z,18.06
2023-01-07T19:49:17.855Z,18.12
2023-01-07T19:51:45.129Z,18.17
2023-01-07T19:54:17.409Z,18.21
2023-01-07T19:56:46.454Z,18.25
2023-01-07T19:59:16.871Z,18.31
2023-01-07T20:01:46.358Z,18.34
2023-01-07T20:04:14.188Z,18.32
2023-01-07T20:06:42.013Z,18.32
2023-01-07T20:09:12.627Z,18.27
2023-01-07T20:11:41.007Z,18.34
2023-01-07T20:14:08.577Z,18.39
2023-01-07T20:16:39.945Z,18.46
2023-01-07T20:19:07.740Z,18.51
2023-01-07T20:21:39.323Z,18.54
2023-01-07T20:24:08.072Z,18.56
2023-01-07T20:26:35.945Z,18.61
2023-01-07T20:29:03.066Z,18.64
2023-01-07T20:31:32.197Z,18.66
2023-01-07T20:34:00.434Z,18.65
2023-01-07T20:36:34.025Z,18.67
2023-01-07T20:39:06.669Z,18.71
2023-01-07T20:41:36.110Z,18.68
2023-01-07T20:44:04.971Z,18.69
2023-01-07T20:46:35.515Z,18.70
2023-01-07T20:49:02.905Z,18.68
2023-01-07T20:51:30.136Z,18.68
2023-01-07T20:53:58.336Z,18.67
2023-01-07T20:56:32.536Z,18.68
2023-01-07T20:59:02.695Z,18.69
2023-01-07T21:01:30.664Z,18.65
2023-01-07T21:04:02.769Z,18.65
2023-01-07T21:06:31.657Z,18.59
2023-01-07T21:09:03.338Z,18.58
2023-01-07T21:11:30.950Z,18.58
2023-01-07T21:13:58.536Z,18.41
2023-01-07T21:16:28.971Z,18.37
2023-01-07T21:18:57.102Z,18.29
2023-01-07T21:21:26.734Z,18.22
2023-01-07T21:23:55.495Z,18.13
2023-01-07T21:26:24.117Z,18.07
2023-01-07T21:28:59.990Z,17.99
2023-01-07T21:31:28.297Z,17.92
2023-01-07T21:33:58.741Z,17.84
2023-01-07T21:36:28.694Z,17.79
2023-01-07T21:38:59.717Z,17.72
2023-01-07T21:41:27.692Z,17.67
2023-01-07T21:43:56.418Z,17.61
2023-01-07T21:46:26.805Z,17.54
2023-01-07T21:48:53.844Z,17.47
2023-01-07T21:51:26.141Z,17.42
2023-01-07T21:53:58.590Z,17.37
2023-01-07T21:56:32.503Z,17.34
2023-01-07T21:59:00.288Z,17.28
2023-01-07T22:01:30.845Z,17.25
2023-01-07T22:03:59.632Z,17.20
2023-01-07T22:06:30.485Z,17.18
2023-01-07T22:09:05.500Z,17.09
2023-01-07T22:11:35.488Z,17.07
2023-01-07T22:14:03.441Z,17.02
2023-01-07T22:16:35.877Z,16.98
2023-01-07T22:19:04.042Z,16.92
2023-01-07T22:21:33.122Z,16.90
2023-01-07T22:24:00.263Z,16.82
2023-01-07T22:26:27.388Z,16.80
2023-01-07T22:28:58.206Z,16.78
2023-01-07T22:31:28.912Z,16.74
2023-01-07T22:33:56.738Z,16.69
2023-01-07T22:36:31.512Z,16.64
2023-01-07T22:39:03.167Z,16.61
2023-01-07T22:41:33.896Z,16.57
2023-01-07T22:44:09.973Z,16.53
2023-01-07T22:46:39.480Z,16.49
2023-01-07T22:49:07.405Z,16.44
2023-01-07T22:51:44.120Z,16.40
2023-01-07T22:54:14.092Z,16.33
2023-01-07T22:56:42.660Z,16.31
2023-01-07T22:59:10.095Z,16.28
2023-01-07T23:01:41.177Z,16.24
2023-01-07T23:04:08.456Z,16.23
2023-01-07T23:06:35.692Z,16.17
2023-01-07T23:09:03.131Z,16.14
2023-01-07T23:11:51.356Z,16.11
2023-01-07T23:14:21.647Z,16.06
2023-01-07T23:16:50.313Z,16.01
2023-01-07T23:19:20.183Z,16.00
2023-01-07T23:21:49.594Z,15.98
2023-01-07T23:24:17.082Z,15.93
2023-01-07T23:26:44.634Z,15.90
2023-01-07T23:29:11.698Z,15.88
2023-01-07T23:31:38.949Z,15.85
2023-01-07T23:34:06.826Z,15.83
2023-01-07T23:36:35.699Z,15.78
2023-01-07T23:39:02.876Z,15.75
2023-01-07T23:41:31.286Z,15.71
2023-01-07T23:43:58.445Z,15.70
2023-01-07T23:46:25.349Z,15.68
2023-01-07T23:48:52.641Z,15.64
2023-01-07T23:51:21.577Z,15.61
2023-01-07T23:53:48.833Z,15.61
2023-01-07T23:56:20.768Z,15.57
2023-01-07T23:58:49.152Z,15.52
